Time;durP1;ratioP1;P1;durP2;ratioP2;P2;SDS_P1;SDS_P2;PMS_P1;PMS_P2;Temp;Humidity;BMP_temperature;BMP_pressure;BME280_temperature;BME280_humidity;BME280_pressure;Samples;Min_cycle;Max_cycle;Signal;HPM_P1;HPM_P2
2022/11/18 00:00:48;;;;;;;72.93;51.13;;;17.20;68.60;;;;;;4945948;28;102017;-54
2022/11/18 00:03:14;;;;;;;74.63;51.22;;;17.10;68.80;;;;;;4941244;28;95758;-56
2022/11/18 00:05:40;;;;;;;73.00;50.53;;;17.10;68.70;;;;;;4945685;28;95283;-53
2022/11/18 00:08:06;;;;;;;73.07;50.88;;;17.10;68.90;;;;;;4945146;28;97074;-54
2022/11/18 00:10:31;;;;;;;73.70;51.53;;;17.10;68.80;;;;;;4942319;28;95145;-55
2022/11/18 00:15:41;;;;;;;74.43;51.05;;;17.10;68.80;;;;;;4935631;28;96668;-57
2022/11/18 00:18:07;;;;;;;71.95;50.72;;;17.10;68.90;;;;;;4944838;28;95367;-54
2022/11/18 00:20:34;;;;;;;74.85;51.28;;;17.10;68.70;;;;;;4952648;28;95734;-54
2022/11/18 00:22:59;;;;;;;74.32;50.92;;;17.00;69.00;;;;;;4945421;28;95099;-56
2022/11/18 00:25:26;;;;;;;72.43;51.53;;;17.00;69.00;;;;;;4944051;28;95345;-54
2022/11/18 00:27:52;;;;;;;73.10;50.70;;;17.00;69.10;;;;;;4948484;28;99112;-55
2022/11/18 00:30:18;;;;;;;73.97;50.95;;;17.00;69.10;;;;;;4941578;28;96676;-55
2022/11/18 00:32:43;;;;;;;73.38;51.85;;;17.00;69.10;;;;;;4949637;28;97050;-55
2022/11/18 00:35:09;;;;;;;71.63;51.08;;;17.00;69.00;;;;;;4951490;28;96582;-53
2022/11/18 00:37:35;;;;;;;73.30;51.40;;;17.00;69.00;;;;;;4944945;28;95319;-56
2022/11/18 00:40:01;;;;;;;74.45;51.33;;;17.00;69.10;;;;;;4942204;28;95948;-56
2022/11/18 00:45:11;;;;;;;73.85;50.88;;;16.90;69.00;;;;;;4949127;28;95556;-53
2022/11/18 00:47:36;;;;;;;72.90;51.05;;;17.00;69.80;;;;;;4941788;28;97039;-53
2022/11/18 00:50:02;;;;;;;72.30;50.65;;;16.90;69.00;;;;;;4954740;28;95152;-56
2022/11/18 00:52:28;;;;;;;72.72;51.45;;;17.00;68.90;;;;;;4938050;28;99982;-54
2022/11/18 00:54:53;;;;;;;72.20;50.60;;;16.90;69.00;;;;;;4945739;28;95127;-54
2022/11/18 00:57:19;;;;;;;72.07;50.75;;;16.90;69.10;;;;;;4952920;28;95327;-52
2022/11/18 00:59:44;;;;;;;71.30;50.53;;;16.90;69.10;;;;;;4947565;28;95005;-54
2022/11/18 01:02:10;;;;;;;72.13;50.65;;;16.80;69.10;;;;;;4946148;28;100079;-53
2022/11/18 01:04:36;;;;;;;70.95;50.50;;;16.80;69.10;;;;;;4951843;28;95765;-53
2022/11/18 01:07:01;;;;;;;71.22;50.65;;;16.80;69.30;;;;;;4944782;28;95532;-51
2022/11/18 01:09:27;;;;;;;71.63;50.85;;;16.80;69.30;;;;;;4944142;28;94857;-54
2022/11/18 01:14:37;;;;;;;72.53;50.88;;;16.80;69.30;;;;;;4949252;28;95319;-56
2022/11/18 01:17:03;;;;;;;72.20;50.67;;;16.80;69.30;;;;;;4949159;28;97087;-55
2022/11/18 01:19:28;;;;;;;71.95;50.83;;;16.70;69.30;;;;;;4948677;28;95994;-54
2022/11/18 01:21:55;;;;;;;71.70;50.95;;;16.80;69.40;;;;;;4937330;28;97452;-54
2022/11/18 01:24:21;;;;;;;71.95;50.75;;;16.70;69.40;;;;;;4951052;28;96585;-54
2022/11/18 01:26:47;;;;;;;71.10;50.65;;;16.70;69.40;;;;;;4945144;28;97600;-53
2022/11/18 01:29:13;;;;;;;72.03;50.95;;;16.70;69.50;;;;;;4945309;28;94776;-53
2022/11/18 01:31:38;;;;;;;74.00;50.90;;;16.70;69.50;;;;;;4945698;28;95431;-53
2022/11/18 01:34:04;;;;;;;71.60;50.40;;;16.70;69.50;;;;;;4945451;28;94192;-54
2022/11/18 01:36:30;;;;;;;73.18;50.38;;;16.70;69.50;;;;;;4949260;28;95348;-55
2022/11/18 01:38:56;;;;;;;71.05;50.35;;;16.60;69.50;;;;;;4947570;28;97646;-55
2022/11/18 01:41:25;;;;;;;72.00;50.47;;;16.60;69.60;;;;;;4947937;28;97273;-52
2022/11/18 01:43:56;;;;;;;71.47;50.55;;;16.60;69.60;;;;;;4945149;28;96391;-53
2022/11/18 01:46:24;;;;;;;70.95;50.55;;;16.60;69.60;;;;;;4944295;28;96635;-55
2022/11/18 01:48:55;;;;;;;71.05;50.63;;;16.60;69.50;;;;;;4946349;28;98100;-54
2022/11/18 01:51:31;;;;;;;72.40;50.83;;;16.60;69.80;;;;;;4947466;28;96012;-53
2022/11/18 01:54:02;;;;;;;73.20;50.53;;;16.60;69.60;;;;;;4950159;28;95179;-53
2022/11/18 01:56:33;;;;;;;71.43;50.40;;;16.60;69.70;;;;;;4937330;28;96056;-53
2022/11/18 01:59:05;;;;;;;70.40;50.33;;;16.60;69.60;;;;;;4945255;28;95409;-51
2022/11/18 02:01:31;;;;;;;70.72;50.25;;;16.60;69.70;;;;;;4937846;28;95175;-56
2022/11/18 02:03:57;;;;;;;72.57;50.72;;;16.50;69.70;;;;;;4945297;28;95155;-53
2022/11/18 02:06:23;;;;;;;70.65;50.35;;;16.50;69.70;;;;;;4939593;28;97106;-55
2022/11/18 02:08:50;;;;;;;71.55;50.50;;;16.60;69.80;;;;;;4947781;28;95996;-53
2022/11/18 02:14:03;;;;;;;70.20;50.03;;;16.50;69.70;;;;;;4946754;28;96164;-56
2022/11/18 02:16:47;;;;;;;70.95;49.97;;;16.50;69.70;;;;;;4945826;28;96313;-53
2022/11/18 02:19:43;;;;;;;70.32;50.35;;;16.50;69.70;;;;;;4943504;28;94884;-54
2022/11/18 02:22:39;;;;;;;71.50;50.30;;;16.50;69.90;;;;;;4943852;28;95668;-52
2022/11/18 02:25:16;;;;;;;70.28;50.22;;;16.40;69.80;;;;;;4943155;28;94995;-54
2022/11/18 02:28:06;;;;;;;70.28;50.03;;;16.40;69.70;;;;;;4943474;28;95357;-55
2022/11/18 02:30:41;;;;;;;72.07;50.63;;;16.40;69.90;;;;;;4944143;28;94818;-53
2022/11/18 02:33:11;;;;;;;70.68;50.33;;;16.40;69.80;;;;;;4946725;28;96275;-55
2022/11/18 02:35:43;;;;;;;70.18;50.17;;;16.40;69.90;;;;;;4951514;28;95257;-52
2022/11/18 02:38:18;;;;;;;70.82;50.78;;;16.40;69.90;;;;;;4953290;28;95769;-54
2022/11/18 02:40:54;;;;;;;70.38;50.53;;;16.40;70.00;;;;;;4953209;28;97343;-54
2022/11/18 02:43:31;;;;;;;70.28;50.22;;;16.40;69.90;;;;;;4948182;28;96219;-53
2022/11/18 02:46:06;;;;;;;70.28;50.35;;;16.40;69.90;;;;;;4952691;28;94686;-53
2022/11/18 02:48:36;;;;;;;69.90;50.17;;;16.40;70.00;;;;;;4951929;28;97000;-53
2022/11/18 02:51:05;;;;;;;70.88;50.15;;;16.40;69.90;;;;;;4949497;28;98539;-54
2022/11/18 02:53:32;;;;;;;71.10;50.30;;;16.30;69.90;;;;;;4942070;28;98716;-52
2022/11/18 02:56:01;;;;;;;70.75;50.33;;;16.30;70.00;;;;;;4951585;28;94943;-53
2022/11/18 02:58:26;;;;;;;70.43;49.97;;;16.30;70.00;;;;;;4947319;28;96584;-52
2022/11/18 03:00:54;;;;;;;70.97;50.10;;;16.40;70.10;;;;;;4946450;28;99759;-53
2022/11/18 03:03:28;;;;;;;71.80;50.05;;;16.30;70.00;;;;;;4942242;28;96748;-51
2022/11/18 03:06:18;;;;;;;69.80;50.35;;;16.30;70.10;;;;;;4949792;28;95391;-56
2022/11/18 03:08:58;;;;;;;70.60;49.97;;;16.20;70.30;;;;;;4951785;28;95166;-51
2022/11/18 03:11:28;;;;;;;70.85;50.42;;;16.30;70.20;;;;;;4952535;28;95497;-52
2022/11/18 03:14:06;;;;;;;72.38;50.55;;;16.30;70.00;;;;;;4942919;28;95101;-53
2022/11/18 03:16:41;;;;;;;70.72;50.42;;;16.30;70.00;;;;;;4950388;28;95321;-52
2022/11/18 03:19:35;;;;;;;70.45;50.25;;;16.30;69.90;;;;;;4942099;28;95207;-53
2022/11/18 03:22:23;;;;;;;70.82;50.22;;;16.30;70.00;;;;;;4942118;28;97187;-55
2022/11/18 03:25:03;;;;;;;69.25;49.72;;;16.20;70.00;;;;;;4938635;28;96820;-54
2022/11/18 03:27:59;;;;;;;70.93;50.25;;;16.20;70.10;;;;;;4944542;28;95661;-53
2022/11/18 03:30:25;;;;;;;70.05;49.70;;;16.20;70.10;;;;;;4936827;28;96046;-55
2022/11/18 03:33:08;;;;;;;70.30;49.97;;;16.20;70.20;;;;;;4944945;28;94790;-52
2022/11/18 03:35:37;;;;;;;69.65;50.15;;;16.20;70.20;;;;;;4949154;28;95086;-55
2022/11/18 03:38:10;;;;;;;69.15;49.92;;;16.20;70.20;;;;;;4943622;28;95050;-54
2022/11/18 03:40:38;;;;;;;69.78;50.15;;;16.20;70.20;;;;;;4945857;28;95371;-54
2022/11/18 03:43:14;;;;;;;69.00;49.88;;;16.20;69.90;;;;;;4939876;28;95693;-54
2022/11/18 03:45:55;;;;;;;69.35;49.65;;;16.20;70.20;;;;;;4953725;28;95833;-54
2022/11/18 03:48:34;;;;;;;70.40;50.33;;;16.20;70.10;;;;;;4945228;28;99386;-54
2022/11/18 03:51:06;;;;;;;70.88;50.28;;;16.20;70.20;;;;;;4948077;28;97946;-54
2022/11/18 03:53:35;;;;;;;69.88;50.22;;;16.20;70.10;;;;;;4949323;28;97209;-53
2022/11/18 03:56:14;;;;;;;69.88;50.28;;;16.20;70.30;;;;;;4950074;28;95117;-53
2022/11/18 03:58:48;;;;;;;69.95;50.15;;;16.20;70.20;;;;;;4932393;28;96625;-50
2022/11/18 04:01:20;;;;;;;69.60;49.70;;;16.10;70.30;;;;;;4945782;28;96671;-54
2022/11/18 04:03:46;;;;;;;70.32;49.85;;;16.10;70.30;;;;;;4938244;28;97768;-53
2022/11/18 04:06:31;;;;;;;70.28;49.95;;;16.20;70.30;;;;;;4948616;28;94976;-55
2022/11/18 04:09:02;;;;;;;70.05;50.15;;;16.10;70.10;;;;;;4943615;28;100225;-54
2022/11/18 04:14:20;;;;;;;69.97;50.00;;;16.10;70.30;;;;;;4939551;28;99320;-53
2022/11/18 04:16:50;;;;;;;70.18;50.00;;;16.10;70.10;;;;;;4941131;28;96403;-53
2022/11/18 04:19:16;;;;;;;71.03;50.08;;;16.10;70.30;;;;;;4945737;28;95036;-55
2022/11/18 04:21:42;;;;;;;69.00;49.95;;;16.10;70.30;;;;;;4947608;28;94729;-53
2022/11/18 04:24:07;;;;;;;69.90;50.42;;;16.10;70.40;;;;;;4945843;28;95087;-50
2022/11/18 04:26:33;;;;;;;69.97;49.50;;;16.00;70.40;;;;;;4949750;28;95195;-53
2022/11/18 04:28:59;;;;;;;69.57;49.83;;;16.00;70.40;;;;;;4958231;28;95965;-52
2022/11/18 04:31:25;;;;;;;68.75;49.70;;;16.00;70.40;;;;;;4944801;28;95031;-53
2022/11/18 04:33:51;;;;;;;68.80;49.78;;;16.00;70.40;;;;;;4949083;28;96790;-51
2022/11/18 04:36:16;;;;;;;70.72;50.40;;;16.10;70.30;;;;;;4946729;28;101465;-56
2022/11/18 04:38:42;;;;;;;71.03;49.83;;;16.00;70.20;;;;;;4946860;28;95237;-50
2022/11/18 04:41:07;;;;;;;71.05;49.60;;;16.00;70.30;;;;;;4950379;28;96570;-54
2022/11/18 04:43:33;;;;;;;69.57;49.83;;;16.00;70.30;;;;;;4951975;28;96794;-52
2022/11/18 04:45:59;;;;;;;71.40;50.10;;;16.00;70.20;;;;;;4948027;28;95232;-55
2022/11/18 04:48:24;;;;;;;69.82;49.85;;;16.10;70.30;;;;;;4951321;28;95103;-53
2022/11/18 04:50:50;;;;;;;70.43;50.15;;;16.00;70.10;;;;;;4944311;28;95030;-52
2022/11/18 04:53:15;;;;;;;69.22;49.85;;;16.00;70.20;;;;;;4945590;28;95027;-52
2022/11/18 04:55:41;;;;;;;69.38;50.03;;;16.00;70.10;;;;;;4945746;28;95017;-53
2022/11/18 04:58:07;;;;;;;70.38;49.85;;;16.00;70.20;;;;;;4954030;28;98232;-53
2022/11/18 05:00:32;;;;;;;69.57;49.83;;;16.00;70.10;;;;;;4945315;28;96649;-53
2022/11/18 05:02:58;;;;;;;70.50;50.20;;;16.00;70.20;;;;;;4956187;28;94754;-55
2022/11/18 05:05:24;;;;;;;69.80;49.90;;;16.00;70.10;;;;;;4949284;28;96167;-54
2022/11/18 05:07:50;;;;;;;70.45;50.13;;;16.00;70.20;;;;;;4950747;28;98328;-51
2022/11/18 05:10:16;;;;;;;71.22;50.03;;;16.00;70.30;;;;;;4942416;28;96369;-55
2022/11/18 05:12:47;;;;;;;69.68;50.03;;;16.00;70.20;;;;;;4954329;28;98086;-55
2022/11/18 05:15:14;;;;;;;71.22;50.25;;;15.90;70.20;;;;;;4946388;28;96133;-54
2022/11/18 05:17:40;;;;;;;73.07;49.85;;;16.00;70.30;;;;;;4957848;28;95089;-55
2022/11/18 05:20:06;;;;;;;68.85;49.78;;;15.90;70.30;;;;;;4952746;28;95042;-55
2022/11/18 05:22:32;;;;;;;70.85;50.55;;;16.00;70.30;;;;;;4948385;28;96408;-52
2022/11/18 05:24:58;;;;;;;70.22;49.88;;;15.90;70.30;;;;;;4950029;28;97537;-53
2022/11/18 05:27:23;;;;;;;70.40;50.30;;;16.00;70.30;;;;;;4942280;28;95385;-55
2022/11/18 05:29:50;;;;;;;72.18;51.08;;;16.00;70.30;;;;;;4931854;28;96429;-53
2022/11/18 05:32:16;;;;;;;71.35;50.10;;;16.00;70.40;;;;;;4935952;28;96348;-55
2022/11/18 05:34:41;;;;;;;69.72;49.40;;;16.00;70.50;;;;;;4950379;28;99164;-56
2022/11/18 05:37:07;;;;;;;72.05;49.80;;;16.00;70.30;;;;;;4946493;28;95419;-51
2022/11/18 05:39:33;;;;;;;71.32;49.50;;;16.00;69.90;;;;;;4950435;28;96569;-54
2022/11/18 05:44:44;;;;;;;69.25;49.70;;;16.00;70.00;;;;;;4946902;28;95115;-54
2022/11/18 05:47:10;;;;;;;71.13;49.83;;;16.10;69.80;;;;;;4950426;28;97633;-54
2022/11/18 05:49:36;;;;;;;70.80;49.95;;;16.00;69.70;;;;;;4942194;28;95444;-56
2022/11/18 05:52:02;;;;;;;70.10;50.38;;;16.00;69.70;;;;;;4942949;28;96486;-54
2022/11/18 05:54:27;;;;;;;71.50;49.83;;;16.00;69.80;;;;;;4949993;28;98073;-55
2022/11/18 05:56:53;;;;;;;68.75;49.53;;;16.00;70.00;;;;;;4949292;28;97246;-56
2022/11/18 05:59:19;;;;;;;70.65;49.90;;;16.00;69.80;;;;;;4941778;28;94807;-52
2022/11/18 06:01:53;;;;;;;68.72;49.80;;;16.00;69.90;;;;;;4934738;28;96087;-55
2022/11/18 06:04:36;;;;;;;70.70;49.60;;;15.90;70.00;;;;;;4953875;28;95148;-54
2022/11/18 06:07:13;;;;;;;68.53;49.70;;;16.00;69.90;;;;;;4946470;28;95568;-54
2022/11/18 06:09:41;;;;;;;69.93;49.97;;;15.90;70.00;;;;;;4946604;28;94673;-56
2022/11/18 06:12:08;;;;;;;69.43;49.85;;;16.00;69.80;;;;;;4945214;28;98773;-54
2022/11/18 06:14:41;;;;;;;71.15;50.03;;;16.00;70.00;;;;;;4942066;28;95812;-54
2022/11/18 06:17:13;;;;;;;70.35;49.65;;;16.00;70.10;;;;;;4955037;28;96234;-52
2022/11/18 06:19:39;;;;;;;70.70;50.03;;;16.00;70.30;;;;;;4945491;28;98139;-54
2022/11/18 06:22:05;;;;;;;70.85;49.85;;;16.00;70.30;;;;;;4941317;28;100212;-54
2022/11/18 06:24:31;;;;;;;71.07;49.97;;;16.10;70.60;;;;;;4937732;28;95278;-53
2022/11/18 06:26:58;;;;;;;71.60;49.70;;;16.10;70.40;;;;;;4938359;28;95672;-56
2022/11/18 06:29:24;;;;;;;71.72;50.45;;;16.10;70.50;;;;;;4932968;28;95033;-53
2022/11/18 06:31:49;;;;;;;71.50;50.47;;;16.10;70.60;;;;;;4932288;28;96240;-54
2022/11/18 06:34:15;;;;;;;71.30;50.13;;;16.00;70.90;;;;;;4945782;28;95165;-52
2022/11/18 06:36:41;;;;;;;71.18;50.25;;;16.00;71.40;;;;;;4940124;28;94635;-54
2022/11/18 06:39:07;;;;;;;72.68;50.45;;;16.00;71.50;;;;;;4938536;28;96049;-53
2022/11/18 06:41:33;;;;;;;72.90;49.72;;;16.00;72.00;;;;;;4939391;28;96457;-53
2022/11/18 06:43:58;;;;;;;70.88;49.70;;;16.00;72.70;;;;;;4952134;28;96139;-52
2022/11/18 06:49:09;;;;;;;78.05;50.72;;;15.90;72.60;;;;;;4930654;28;98016;-55
2022/11/18 06:51:35;;;;;;;70.90;50.38;;;15.90;73.30;;;;;;4944531;28;95240;-53
2022/11/18 06:54:00;;;;;;;75.38;50.50;;;15.90;73.10;;;;;;4949124;28;95783;-55
2022/11/18 06:56:26;;;;;;;70.22;50.17;;;15.90;72.80;;;;;;4941908;28;95160;-54
2022/11/18 06:58:57;;;;;;;73.85;50.17;;;15.90;72.60;;;;;;4937884;28;96551;-56
2022/11/18 07:01:25;;;;;;;73.60;50.40;;;15.80;73.00;;;;;;4937903;28;94942;-54
2022/11/18 07:03:51;;;;;;;78.03;50.97;;;15.90;73.40;;;;;;4937282;28;95476;-53
2022/11/18 07:06:23;;;;;;;76.15;51.25;;;15.90;73.80;;;;;;4945235;28;98768;-54
2022/11/18 07:08:49;;;;;;;;;;;15.90;74.80;;;;;;4942646;28;97226;-56
2022/11/18 07:11:17;;;;;;;81.25;51.50;;;15.90;75.50;;;;;;4939475;28;95088;-53
2022/11/18 07:13:44;;;;;;;77.55;51.17;;;16.00;75.30;;;;;;4942568;28;95048;-57
2022/11/18 07:16:18;;;;;;;74.97;51.35;;;16.00;75.70;;;;;;4948516;28;95171;-53
2022/11/18 07:18:45;;;;;;;77.25;50.92;;;16.10;75.90;;;;;;4950145;28;98632;-53
2022/11/18 07:21:19;;;;;;;75.55;51.30;;;16.10;75.80;;;;;;4944881;28;97532;-55
2022/11/18 07:23:45;;;;;;;89.75;53.17;;;16.10;75.60;;;;;;4939851;28;95567;-53
2022/11/18 07:26:12;;;;;;;79.93;52.33;;;16.10;76.60;;;;;;4944746;28;94772;-56
2022/11/18 07:28:38;;;;;;;80.80;51.90;;;16.00;77.20;;;;;;4941498;28;95377;-53
2022/11/18 07:31:08;;;;;;;92.90;53.22;;;16.00;77.60;;;;;;4946424;28;95440;-54
2022/11/18 07:33:35;;;;;;;84.35;52.92;;;16.10;76.60;;;;;;4939933;28;96342;-54
2022/11/18 07:36:26;;;;;;;91.43;54.58;;;16.10;76.60;;;;;;4939682;28;100010;-53
2022/11/18 07:38:52;;;;;;;94.72;54.25;;;16.10;76.60;;;;;;4936641;28;95854;-54
2022/11/18 07:41:23;;;;;;;101.25;55.28;;;16.00;76.70;;;;;;4942865;28;99000;-54
2022/11/18 07:43:50;;;;;;;109.32;55.78;;;16.00;76.40;;;;;;4941653;28;95126;-54
2022/11/18 07:46:30;;;;;;;98.40;55.47;;;16.00;76.10;;;;;;4945859;28;95434;-55
2022/11/18 07:48:58;;;;;;;102.35;55.47;;;16.00;76.30;;;;;;4939917;28;95448;-55
2022/11/18 07:51:26;;;;;;;103.00;55.95;;;16.00;76.60;;;;;;4952571;28;94533;-54
2022/11/18 07:53:52;;;;;;;92.95;54.42;;;16.00;76.70;;;;;;4950490;28;97340;-54
2022/11/18 07:56:18;;;;;;;97.28;54.95;;;16.00;76.30;;;;;;4949101;28;97741;-54
2022/11/18 07:58:45;;;;;;;95.57;54.80;;;16.00;76.00;;;;;;4941917;28;100775;-54
2022/11/18 08:01:19;;;;;;;97.20;55.92;;;15.90;76.10;;;;;;4940503;28;95680;-54
2022/11/18 08:03:45;;;;;;;97.60;54.92;;;16.00;75.70;;;;;;4940825;28;99037;-51
2022/11/18 08:06:13;;;;;;;92.15;55.80;;;16.00;75.50;;;;;;4935621;28;95203;-53
2022/11/18 08:08:39;;;;;;;95.53;54.97;;;16.00;75.70;;;;;;4942864;28;96325;-53
2022/11/18 08:11:07;;;;;;;98.90;55.78;;;15.90;75.70;;;;;;4940792;28;95366;-53
2022/11/18 08:13:34;;;;;;;91.78;54.70;;;15.90;75.50;;;;;;4945040;28;97103;-54
2022/11/18 08:16:01;;;;;;;92.88;55.03;;;15.90;75.70;;;;;;4944091;28;94471;-55
2022/11/18 08:18:28;;;;;;;94.45;54.90;;;16.00;75.40;;;;;;4948328;28;94975;-53
2022/11/18 08:20:54;;;;;;;91.00;54.60;;;15.90;75.80;;;;;;4942180;28;95134;-53
2022/11/18 08:23:20;;;;;;;96.72;54.80;;;16.00;76.00;;;;;;4943611;28;96124;-52
2022/11/18 08:25:46;;;;;;;101.85;55.33;;;16.10;76.70;;;;;;4947762;28;95882;-52
2022/11/18 08:28:13;;;;;;;89.90;54.80;;;16.00;77.10;;;;;;4951432;28;94802;-53
2022/11/18 08:30:38;;;;;;;90.03;55.05;;;16.00;77.40;;;;;;4954116;28;95354;-52
2022/11/18 08:33:04;;;;;;;90.75;54.63;;;16.00;76.90;;;;;;4940800;28;94899;-53
2022/11/18 08:35:32;;;;;;;88.07;53.92;;;16.00;76.90;;;;;;4944944;28;95355;-51
2022/11/18 08:37:58;;;;;;;90.88;54.45;;;16.00;77.00;;;;;;4944084;28;95787;-55
2022/11/18 08:40:25;;;;;;;89.47;53.65;;;15.90;77.00;;;;;;4948151;28;98928;-56
2022/11/18 08:42:50;;;;;;;96.57;57.67;;;16.00;76.60;;;;;;4920608;28;103697;-51
2022/11/18 08:45:16;;;;;;;93.55;55.33;;;16.00;77.10;;;;;;4931123;28;99905;-55
2022/11/18 08:47:42;;;;;;;92.75;54.40;;;16.10;76.80;;;;;;4949246;28;96459;-52
2022/11/18 08:50:09;;;;;;;93.47;54.58;;;16.10;76.20;;;;;;4945798;28;96892;-54
2022/11/18 08:52:35;;;;;;;90.30;53.30;;;16.10;76.20;;;;;;4938219;28;95529;-55
2022/11/18 08:55:00;;;;;;;89.68;55.00;;;16.10;75.90;;;;;;4942452;28;95323;-56
2022/11/18 08:57:26;;;;;;;97.50;54.72;;;16.00;76.10;;;;;;4942000;28;97470;-54
2022/11/18 08:59:52;;;;;;;85.63;54.17;;;16.00;75.70;;;;;;4940287;28;95524;-54
2022/11/18 09:02:20;;;;;;;85.22;53.53;;;16.00;75.60;;;;;;4935297;28;97103;-54
2022/11/18 09:04:50;;;;;;;80.20;52.85;;;16.00;75.50;;;;;;4945129;28;95478;-55
2022/11/18 09:07:17;;;;;;;87.53;53.63;;;15.90;75.30;;;;;;4951841;28;95130;-54
2022/11/18 09:09:42;;;;;;;83.15;53.38;;;15.90;75.10;;;;;;4944681;28;96704;-52
2022/11/18 09:12:09;;;;;;;81.60;52.55;;;15.90;74.90;;;;;;4947955;28;96658;-53
2022/11/18 09:14:34;;;;;;;82.72;53.28;;;16.00;74.20;;;;;;4940720;28;95313;-52
2022/11/18 09:17:01;;;;;;;78.50;52.88;;;16.00;74.00;;;;;;4942958;28;95339;-53
2022/11/18 09:19:26;;;;;;;88.93;52.83;;;16.00;74.00;;;;;;4949591;28;97744;-54
2022/11/18 09:21:52;;;;;;;82.10;52.60;;;15.90;74.40;;;;;;4942266;28;95104;-53
2022/11/18 09:24:18;;;;;;;81.90;53.30;;;15.90;74.20;;;;;;4952325;28;94757;-55
2022/11/18 09:26:44;;;;;;;77.55;52.13;;;16.00;74.00;;;;;;4944351;28;95046;-53
2022/11/18 09:29:10;;;;;;;81.85;52.35;;;15.90;73.70;;;;;;4941458;28;94219;-55
2022/11/18 09:31:36;;;;;;;80.60;52.28;;;16.00;73.90;;;;;;4947436;28;95664;-53
2022/11/18 09:34:02;;;;;;;80.95;52.17;;;16.00;73.60;;;;;;4948653;28;95055;-54
2022/11/18 09:36:28;;;;;;;83.28;52.20;;;15.90;73.70;;;;;;4952518;28;96002;-54
2022/11/18 09:38:54;;;;;;;83.70;52.50;;;16.00;73.80;;;;;;4942723;28;94954;-53
2022/11/18 09:41:37;;;;;;;81.90;51.83;;;16.00;73.70;;;;;;4951597;28;94976;-53
2022/11/18 09:44:21;;;;;;;79.45;52.15;;;16.00;73.80;;;;;;4956166;28;95005;-52
2022/11/18 09:47:19;;;;;;;81.75;52.13;;;16.00;73.90;;;;;;4958237;28;96015;-54
2022/11/18 09:49:45;;;;;;;83.00;52.60;;;16.00;74.30;;;;;;4946691;28;96764;-53
2022/11/18 09:52:27;;;;;;;83.10;52.10;;;16.00;74.70;;;;;;4947533;28;95734;-54
2022/11/18 09:54:53;;;;;;;81.97;51.85;;;16.00;74.20;;;;;;4943807;28;94444;-53
2022/11/18 09:57:27;;;;;;;76.95;51.42;;;16.10;74.70;;;;;;4950072;28;95605;-55
2022/11/18 09:59:53;;;;;;;79.55;52.17;;;16.10;74.00;;;;;;4936176;28;95792;-54
2022/11/18 10:02:52;;;;;;;80.45;52.30;;;16.10;74.20;;;;;;5031428;27;86709;-53
2022/11/18 10:05:23;;;;;;;78.22;51.58;;;16.10;74.40;;;;;;5016837;28;85663;-56
2022/11/18 10:08:15;;;;;;;86.65;52.10;;;16.10;74.80;;;;;;5013210;28;85359;-52
2022/11/18 10:11:07;;;;;;;79.68;51.55;;;16.10;74.60;;;;;;5005525;27;86669;-50
2022/11/18 10:14:04;;;;;;;82.47;51.60;;;16.00;74.40;;;;;;5002397;28;85162;-51
2022/11/18 10:16:32;;;;;;;76.97;51.38;;;16.00;74.30;;;;;;5003593;27;85506;-52
2022/11/18 10:19:32;;;;;;;86.63;51.88;;;16.10;74.50;;;;;;5013319;28;85759;-53
2022/11/18 10:22:24;;;;;;;77.63;51.53;;;16.10;74.40;;;;;;5003908;27;85616;-50
2022/11/18 10:24:55;;;;;;;79.10;52.30;;;16.10;74.90;;;;;;4998871;28;85730;-54
2022/11/18 10:27:22;;;;;;;77.45;51.60;;;16.10;74.50;;;;;;5011963;27;86959;-50
2022/11/18 10:29:53;;;;;;;80.72;51.42;;;16.10;74.30;;;;;;5002980;27;85331;-52
2022/11/18 10:32:19;;;;;;;77.75;51.65;;;16.10;74.30;;;;;;5005488;27;85410;-52
2022/11/18 10:34:48;;;;;;;82.95;51.80;;;16.10;74.20;;;;;;4997835;28;85253;-53
2022/11/18 10:37:35;;;;;;;80.35;51.42;;;16.10;74.00;;;;;;5012549;27;87115;-52
2022/11/18 10:40:03;;;;;;;80.03;51.60;;;16.10;73.90;;;;;;5009775;27;85641;-51
2022/11/18 10:42:40;;;;;;;75.38;51.15;;;16.10;73.70;;;;;;5007583;27;85549;-53
2022/11/18 10:45:21;;;;;;;78.25;51.85;;;16.10;73.90;;;;;;5003699;28;85294;-52
2022/11/18 10:48:07;;;;;;;76.87;51.23;;;16.10;73.80;;;;;;5003601;27;86415;-53
2022/11/18 10:50:38;;;;;;;81.78;51.90;;;16.20;73.80;;;;;;5001156;28;90589;-53
2022/11/18 10:53:30;;;;;;;79.50;51.35;;;16.20;73.80;;;;;;5005170;28;85172;-53
2022/11/18 10:55:59;;;;;;;;;;;16.20;73.80;;;;;;5001236;27;85390;-49
2022/11/18 10:58:27;;;;;;;78.57;50.72;;;16.20;73.90;;;;;;5017150;27;82862;-53
2022/11/18 11:01:07;;;;;;;81.05;51.63;;;16.20;73.80;;;;;;5004826;27;85300;-54
2022/11/18 11:03:37;;;;;;;80.72;51.25;;;16.20;73.50;;;;;;5012181;27;86854;-55
2022/11/18 11:06:26;;;;;;;78.38;51.22;;;16.30;73.40;;;;;;5002311;27;85495;-53
2022/11/18 11:08:55;;;;;;;84.43;51.67;;;16.30;73.50;;;;;;5003245;27;87067;-53
2022/11/18 11:11:36;;;;;;;77.25;51.67;;;16.40;73.70;;;;;;5000142;27;85826;-53
2022/11/18 11:14:20;;;;;;;84.70;51.55;;;16.40;73.50;;;;;;4994019;28;88725;-54
2022/11/18 11:17:27;;;;;;;79.40;51.33;;;16.40;73.40;;;;;;4996065;28;85414;-50
2022/11/18 11:20:16;;;;;;;76.55;51.17;;;16.50;73.70;;;;;;4981105;28;87038;-57
2022/11/18 11:22:43;;;;;;;76.68;51.53;;;16.60;74.10;;;;;;4987972;28;88842;-56
2022/11/18 11:25:17;;;;;;;76.13;51.42;;;16.60;73.90;;;;;;4989343;28;85207;-57
2022/11/18 11:28:22;;;;;;;76.97;51.35;;;16.40;74.00;;;;;;4994853;28;85291;-56
2022/11/18 11:31:26;;;;;;;75.57;51.25;;;16.40;74.10;;;;;;4983023;28;87546;-58
2022/11/18 11:34:05;;;;;;;76.63;51.35;;;16.40;74.20;;;;;;4982370;28;85859;-58
2022/11/18 11:36:30;;;;;;;77.50;51.58;;;16.30;73.90;;;;;;4982000;28;85515;-57
2022/11/18 11:39:34;;;;;;;73.07;51.33;;;16.30;74.00;;;;;;4985829;28;85353;-58
2022/11/18 11:42:34;;;;;;;76.57;51.45;;;16.30;74.00;;;;;;4978269;28;87809;-57
2022/11/18 11:45:10;;;;;;;75.95;51.45;;;16.30;74.10;;;;;;4981090;28;87353;-57
2022/11/18 11:48:09;;;;;;;77.07;51.40;;;16.30;74.00;;;;;;4986060;28;86726;-58
2022/11/18 11:50:52;;;;;;;75.30;51.70;;;16.40;74.10;;;;;;4990098;28;87956;-58
2022/11/18 11:53:23;;;;;;;76.25;51.90;;;16.40;73.90;;;;;;4966720;28;87616;-59
2022/11/18 11:56:05;;;;;;;79.60;51.53;;;16.40;74.30;;;;;;4973988;28;87281;-58
2022/11/18 11:59:01;;;;;;;77.00;52.05;;;16.40;74.50;;;;;;4989324;28;86220;-59
2022/11/18 12:01:46;;;;;;;75.20;51.22;;;16.40;75.70;;;;;;4989817;28;86706;-58
2022/11/18 12:04:31;;;;;;;76.05;52.00;;;16.50;76.20;;;;;;4989157;28;87102;-58
2022/11/18 12:06:58;;;;;;;77.22;51.75;;;16.50;76.10;;;;;;4990882;28;87573;-59
2022/11/18 12:09:33;;;;;;;80.75;51.78;;;16.50;76.10;;;;;;4986656;28;85405;-59
2022/11/18 12:12:35;;;;;;;79.20;51.70;;;16.50;76.10;;;;;;4993707;28;86849;-59
2022/11/18 12:15:15;;;;;;;74.95;51.03;;;16.50;75.90;;;;;;4981115;28;85673;-59
2022/11/18 12:17:49;;;;;;;77.50;51.97;;;16.60;75.90;;;;;;4988835;28;85534;-59
2022/11/18 12:20:39;;;;;;;76.43;51.55;;;16.60;75.50;;;;;;4987686;28;85512;-58
2022/11/18 12:23:20;;;;;;;74.85;51.10;;;16.60;75.20;;;;;;4984629;28;85473;-59
2022/11/18 12:25:48;;;;;;;75.35;51.45;;;16.60;75.00;;;;;;4972366;28;86443;-58
2022/11/18 12:28:30;;;;;;;73.55;51.47;;;16.60;74.80;;;;;;4988857;28;85717;-58
2022/11/18 12:31:34;;;;;;;77.03;51.33;;;16.60;74.60;;;;;;4998678;28;85767;-58
2022/11/18 12:34:03;;;;;;;76.78;51.13;;;16.60;74.80;;;;;;4980773;28;85427;-59
2022/11/18 12:36:29;;;;;;;75.95;51.35;;;16.70;74.60;;;;;;4992228;28;88429;-59
2022/11/18 12:38:55;;;;;;;80.03;51.33;;;16.60;74.40;;;;;;4982327;28;85647;-58
2022/11/18 12:44:26;;;;;;;76.05;51.22;;;16.70;74.40;;;;;;4982838;28;86486;-59
2022/11/18 12:46:53;;;;;;;74.93;51.72;;;16.60;74.20;;;;;;4980430;28;86426;-59
2022/11/18 12:49:21;;;;;;;77.03;51.13;;;16.70;74.40;;;;;;4987704;28;85626;-59
2022/11/18 12:51:49;;;;;;;78.07;50.80;;;16.70;74.40;;;;;;4989447;28;85347;-58
2022/11/18 12:54:21;;;;;;;73.85;51.00;;;16.70;74.50;;;;;;4988051;28;86400;-58
2022/11/18 12:56:49;;;;;;;76.25;51.63;;;16.70;74.50;;;;;;4991298;28;85253;-58
2022/11/18 12:59:15;;;;;;;75.18;50.67;;;16.70;74.50;;;;;;4989206;28;85927;-59
2022/11/18 13:01:40;;;;;;;73.32;51.22;;;16.70;74.80;;;;;;4984652;28;85257;-58
2022/11/18 13:04:07;;;;;;;76.95;51.25;;;16.70;75.60;;;;;;4980290;28;88058;-58
2022/11/18 13:06:36;;;;;;;75.10;50.97;;;16.60;76.50;;;;;;4992100;28;87276;-59
2022/11/18 13:09:06;;;;;;;76.80;51.08;;;16.60;77.20;;;;;;4993070;28;85770;-59
2022/11/18 13:11:45;;;;;;;77.25;51.05;;;16.70;77.90;;;;;;4985651;28;85972;-60